Skip to main content.
Station Historical Data
 
Daily Summary for November 15, 2018 Units:  Both    English   Metric
Next Day »
Daily Weekly Monthly Yearly Custom
  Current: High: Low: Average:
Temperature: 45.1 °F /  7.3 °C 45.1 °F /  7.3 °C 24.4 °F /  -4.2 °C 29.8 °F /  -1.2 °C
Dew Point: 35.2 °F /  1.8 °C 35.2 °F /  1.8 °C 21.9 °F /  -5.6 °C 25.9 °F /  -3.4 °C
Humidity: 68% 91% 68% 85%
Wind Speed: 5.5mph /  8.8km/h 11.4mph /  18.3km/h - 7.9mph /  12.7km/h
Wind Gust: 10mph /  16.1km/h 15mph /  24.1km/h - -
WindWNW - - SSW
Pressure: 30 in /  1015.6 hPa 30.2 in /  1022.0 hPa 30 in /  1015.5 hPa -
Precipitation: 0 in /  0.0 mm      
Historical Graphs
 
 
Tabular Data for November 15, 2018
Time Temperature Dew Point Pressure Wind Wind Speed Wind Gust Humidity Rainfall Rate (Hourly) solar Conditions
00:04 29.3 °F /  -1.5 °C 24.8 °F /  -4.0 °C 30.2in /  1022.0hPa SSE 8.8mph /  14.2km/h 11.5mph /  18.5km/h 83% 0in /  0.0mm 0.00 W/m2 FEW
00:09 29.3 °F /  -1.5 °C 24.8 °F /  -4.0 °C 30.2in /  1022.0hPa South 8mph /  12.9km/h 11.5mph /  18.5km/h 83% 0in /  0.0mm 0.00 W/m2 FEW
00:14 29.3 °F /  -1.5 °C 24.8 °F /  -4.0 °C 30.2in /  1021.9hPa South 9.8mph /  15.8km/h 12.7mph /  20.4km/h 83% 0in /  0.0mm 0.00 W/m2 FEW
00:19 29.1 °F /  -1.6 °C 24.6 °F /  -4.1 °C 30.2in /  1021.8hPa South 10.5mph /  16.9km/h 12.7mph /  20.4km/h 83% 0in /  0.0mm 0.00 W/m2 FEW
00:24 29.1 °F /  -1.6 °C 24.6 °F /  -4.1 °C 30.2in /  1021.6hPa South 10.8mph /  17.4km/h 12.7mph /  20.4km/h 83% 0in /  0.0mm 0.00 W/m2 FEW
00:29 29.1 °F /  -1.6 °C 24.6 °F /  -4.1 °C 30.2in /  1021.6hPa South 10.9mph /  17.5km/h 13mph /  20.9km/h 83% 0in /  0.0mm 0.00 W/m2 FEW
00:34 29.1 °F /  -1.6 °C 25 °F /  -3.9 °C 30.2in /  1021.6hPa South 10.6mph /  17.1km/h 11.5mph /  18.5km/h 84% 0in /  0.0mm 0.00 W/m2 FEW
00:39 29.1 °F /  -1.6 °C 25 °F /  -3.9 °C 30.2in /  1021.5hPa South 10.3mph /  16.6km/h 13.8mph /  22.2km/h 84% 0in /  0.0mm 0.00 W/m2 FEW
00:44 29.1 °F /  -1.6 °C 25 °F /  -3.9 °C 30.2in /  1021.4hPa South 9.8mph /  15.8km/h 11.5mph /  18.5km/h 84% 0in /  0.0mm 0.00 W/m2 FEW
00:49 29.1 °F /  -1.6 °C 25 °F /  -3.9 °C 30.2in /  1021.3hPa South 8.7mph /  14.0km/h 10.4mph /  16.7km/h 84% 0in /  0.0mm 0.00 W/m2 FEW
00:54 28.9 °F /  -1.7 °C 24.8 °F /  -4.0 °C 30.2in /  1021.3hPa South 9.2mph /  14.8km/h 11.5mph /  18.5km/h 84% 0in /  0.0mm 0.00 W/m2 FEW
00:59 28.9 °F /  -1.7 °C 24.8 °F /  -4.0 °C 30.2in /  1021.1hPa South 8.7mph /  14.0km/h 11.5mph /  18.5km/h 84% 0in /  0.0mm 0.00 W/m2 FEW
01:04 28.9 °F /  -1.7 °C 24.8 °F /  -4.0 °C 30.2in /  1020.9hPa South 9.4mph /  15.1km/h 11.5mph /  18.5km/h 84% 0in /  0.0mm 0.00 W/m2 FEW
01:09 29.1 °F /  -1.6 °C 25 °F /  -3.9 °C 30.1in /  1020.8hPa South 10.5mph /  16.9km/h 11.5mph /  18.5km/h 84% 0in /  0.0mm 0.00 W/m2 FEW
01:14 28.9 °F /  -1.7 °C 24.8 °F /  -4.0 °C 30.1in /  1020.8hPa South 9.6mph /  15.4km/h 11.5mph /  18.5km/h 84% 0in /  0.0mm 0.00 W/m2 FEW
01:19 28.9 °F /  -1.7 °C 25.2 °F /  -3.8 °C 30.1in /  1020.6hPa South 9.1mph /  14.6km/h 11.5mph /  18.5km/h 85% 0in /  0.0mm 0.00 W/m2 FEW
01:24 28.9 °F /  -1.7 °C 25 °F /  -3.9 °C 30.1in /  1020.6hPa South 9.6mph /  15.4km/h 12.7mph /  20.4km/h 85% 0in /  0.0mm 0.00 W/m2 FEW
01:29 28.8 °F /  -1.8 °C 25 °F /  -3.9 °C 30.1in /  1020.6hPa South 10.9mph /  17.5km/h 12.7mph /  20.4km/h 85% 0in /  0.0mm 0.00 W/m2 FEW
01:34 28.8 °F /  -1.8 °C 24.8 °F /  -4.0 °C 30.1in /  1020.6hPa South 9.6mph /  15.4km/h 11.5mph /  18.5km/h 85% 0in /  0.0mm 0.00 W/m2 FEW
01:39 28.8 °F /  -1.8 °C 24.8 °F /  -4.0 °C 30.1in /  1020.5hPa South 11.4mph /  18.3km/h 13mph /  20.9km/h 85% 0in /  0.0mm 0.00 W/m2 FEW
01:44 28.8 °F /  -1.8 °C 24.8 °F /  -4.0 °C 30.1in /  1020.4hPa South 10.1mph /  16.3km/h 13.8mph /  22.2km/h 85% 0in /  0.0mm 0.00 W/m2 FEW
01:49 28.6 °F /  -1.9 °C 24.6 °F /  -4.1 °C 30.1in /  1020.2hPa South 11.4mph /  18.3km/h 15mph /  24.1km/h 85% 0in /  0.0mm 0.00 W/m2 FEW
01:54 28.6 °F /  -1.9 °C 24.6 °F /  -4.1 °C 30.1in /  1020.1hPa South 10.9mph /  17.5km/h 11.5mph /  18.5km/h 85% 0in /  0.0mm 0.00 W/m2 FEW
01:59 28.4 °F /  -2.0 °C 24.4 °F /  -4.2 °C 30.1in /  1020.2hPa South 9.6mph /  15.4km/h 11.5mph /  18.5km/h 85% 0in /  0.0mm 0.00 W/m2 FEW
02:04 28.2 °F /  -2.1 °C 24.6 °F /  -4.1 °C 30.1in /  1020.0hPa South 10.2mph /  16.4km/h 11.5mph /  18.5km/h 86% 0in /  0.0mm 0.00 W/m2 FEW
02:09 28.2 °F /  -2.1 °C 24.6 °F /  -4.1 °C 30.1in /  1020.0hPa South 10.2mph /  16.4km/h 11.5mph /  18.5km/h 86% 0in /  0.0mm 0.00 W/m2 FEW
02:14 28.2 °F /  -2.1 °C 24.6 °F /  -4.1 °C 30.1in /  1019.9hPa South 9.9mph /  15.9km/h 11.5mph /  18.5km/h 86% 0in /  0.0mm 0.00 W/m2 FEW
02:19 28.2 °F /  -2.1 °C 24.6 °F /  -4.1 °C 30.1in /  1019.8hPa South 10.8mph /  17.4km/h 12.7mph /  20.4km/h 86% 0in /  0.0mm 0.00 W/m2 FEW
02:24 28.2 °F /  -2.1 °C 24.6 °F /  -4.1 °C 30.1in /  1019.8hPa South 9.8mph /  15.8km/h 11.5mph /  18.5km/h 86% 0in /  0.0mm 0.00 W/m2 FEW
02:29 28 °F /  -2.2 °C 24.4 °F /  -4.2 °C 30.1in /  1019.7hPa South 10.2mph /  16.4km/h 12mph /  19.3km/h 86% 0in /  0.0mm 0.00 W/m2 FEW
02:34 28 °F /  -2.2 °C 24.4 °F /  -4.2 °C 30.1in /  1019.6hPa South 10.2mph /  16.4km/h 12.7mph /  20.4km/h 86% 0in /  0.0mm 0.00 W/m2 FEW
02:39 27.9 °F /  -2.3 °C 24.3 °F /  -4.3 °C 30.1in /  1019.6hPa South 10.3mph /  16.6km/h 11.5mph /  18.5km/h 86% 0in /  0.0mm 0.00 W/m2 FEW
02:44 27.9 °F /  -2.3 °C 24.3 °F /  -4.3 °C 30.1in /  1019.5hPa South 10.4mph /  16.7km/h 12.7mph /  20.4km/h 86% 0in /  0.0mm 0.00 W/m2 FEW
02:49 27.9 °F /  -2.3 °C 24.3 °F /  -4.3 °C 30.1in /  1019.3hPa South 10.5mph /  16.9km/h 11.5mph /  18.5km/h 86% 0in /  0.0mm 0.00 W/m2 FEW
02:54 27.7 °F /  -2.4 °C 24.3 °F /  -4.3 °C 30.1in /  1019.2hPa South 10.1mph /  16.3km/h 12.7mph /  20.4km/h 87% 0in /  0.0mm 0.00 W/m2 FEW
02:59 27.7 °F /  -2.4 °C 24.3 °F /  -4.3 °C 30.1in /  1019.2hPa SSE 10.3mph /  16.6km/h 12.7mph /  20.4km/h 87% 0in /  0.0mm 0.00 W/m2 FEW
03:04 27.7 °F /  -2.4 °C 24.3 °F /  -4.3 °C 30.1in /  1019.1hPa South 9.4mph /  15.1km/h 12.7mph /  20.4km/h 87% 0in /  0.0mm 0.00 W/m2 FEW
03:09 27.9 °F /  -2.3 °C 24.4 °F /  -4.2 °C 30.1in /  1019.0hPa South 9.5mph /  15.3km/h 12.7mph /  20.4km/h 87% 0in /  0.0mm 0.00 W/m2 FEW
03:14 27.9 °F /  -2.3 °C 24.4 °F /  -4.2 °C 30.1in /  1018.9hPa South 10.1mph /  16.3km/h 13.8mph /  22.2km/h 87% 0in /  0.0mm 0.00 W/m2 FEW
03:19 27.9 °F /  -2.3 °C 24.4 °F /  -4.2 °C 30.1in /  1018.7hPa South 10.5mph /  16.9km/h 13mph /  20.9km/h 87% 0in /  0.0mm 0.00 W/m2 FEW
03:24 27.9 °F /  -2.3 °C 24.4 °F /  -4.2 °C 30.1in /  1018.7hPa South 9.5mph /  15.3km/h 11.5mph /  18.5km/h 87% 0in /  0.0mm 0.00 W/m2 FEW
03:29 28 °F /  -2.2 °C 24.6 °F /  -4.1 °C 30.1in /  1018.5hPa SSE 9.3mph /  15.0km/h 10.4mph /  16.7km/h 87% 0in /  0.0mm 0.00 W/m2 FEW
03:34 28 °F /  -2.2 °C 24.6 °F /  -4.1 °C 30.1in /  1018.4hPa South 9.7mph /  15.6km/h 11.5mph /  18.5km/h 87% 0in /  0.0mm 0.00 W/m2 FEW
03:39 28 °F /  -2.2 °C 24.6 °F /  -4.1 °C 30.1in /  1018.3hPa SSE 9.9mph /  15.9km/h 12.7mph /  20.4km/h 87% 0in /  0.0mm 0.00 W/m2 FEW
03:44 28 °F /  -2.2 °C 24.6 °F /  -4.1 °C 30.1in /  1018.3hPa South 9.6mph /  15.4km/h 12.7mph /  20.4km/h 87% 0in /  0.0mm 0.00 W/m2 FEW
03:49 28 °F /  -2.2 °C 24.6 °F /  -4.1 °C 30.1in /  1018.2hPa South 10mph /  16.1km/h 10.4mph /  16.7km/h 87% 0in /  0.0mm 0.00 W/m2 FEW
03:54 28 °F /  -2.2 °C 24.6 °F /  -4.1 °C 30.1in /  1018.1hPa SSE 8.6mph /  13.8km/h 9.2mph /  14.8km/h 87% 0in /  0.0mm 0.00 W/m2 FEW
03:59 28 °F /  -2.2 °C 24.6 °F /  -4.1 °C 30.1in /  1018.0hPa South 9.2mph /  14.8km/h 11.5mph /  18.5km/h 87% 0in /  0.0mm 0.00 W/m2 FEW
04:04 28 °F /  -2.2 °C 24.6 °F /  -4.1 °C 30.1in /  1017.9hPa South 9.9mph /  15.9km/h 11.5mph /  18.5km/h 87% 0in /  0.0mm 0.00 W/m2 FEW
04:09 28 °F /  -2.2 °C 24.6 °F /  -4.1 °C 30.1in /  1017.8hPa South 9.7mph /  15.6km/h 12.7mph /  20.4km/h 87% 0in /  0.0mm 0.00 W/m2 FEW
04:14 28 °F /  -2.2 °C 24.6 °F /  -4.1 °C 30.1in /  1017.7hPa South 10mph /  16.1km/h 12.7mph /  20.4km/h 87% 0in /  0.0mm 0.00 W/m2 FEW
04:19 28 °F /  -2.2 °C 24.6 °F /  -4.1 °C 30.1in /  1017.7hPa South 10.6mph /  17.1km/h 14mph /  22.5km/h 87% 0in /  0.0mm 0.00 W/m2 FEW
04:24 28 °F /  -2.2 °C 24.6 °F /  -4.1 °C 30.1in /  1017.6hPa South 9.1mph /  14.6km/h 11.5mph /  18.5km/h 87% 0in /  0.0mm 0.00 W/m2 FEW
04:29 27.3 °F /  -2.6 °C 24.1 °F /  -4.4 °C 30.1in /  1017.6hPa South 8.2mph /  13.2km/h 10.4mph /  16.7km/h 87% 0in /  0.0mm 0.00 W/m2 FEW
04:34 27.1 °F /  -2.7 °C 23.7 °F /  -4.6 °C 30.1in /  1017.7hPa SSW 7.1mph /  11.4km/h 9.2mph /  14.8km/h 87% 0in /  0.0mm 0.00 W/m2 FEW
04:39 27.1 °F /  -2.7 °C 23.7 °F /  -4.6 °C 30.1in /  1017.6hPa South 7.7mph /  12.4km/h 9.2mph /  14.8km/h 87% 0in /  0.0mm 0.00 W/m2 FEW
04:44 27 °F /  -2.8 °C 23.7 °F /  -4.6 °C 30.1in /  1017.8hPa South 6mph /  9.7km/h 8.1mph /  13.0km/h 88% 0in /  0.0mm 0.00 W/m2 FEW
04:49 26.8 °F /  -2.9 °C 23.7 °F /  -4.6 °C 30.1in /  1017.7hPa SSW 5.2mph /  8.4km/h 6.9mph /  11.1km/h 88% 0in /  0.0mm 0.00 W/m2 FEW
04:54 26.6 °F /  -3.0 °C 23.5 °F /  -4.7 °C 30.1in /  1017.7hPa South 5.1mph /  8.2km/h 5.8mph /  9.3km/h 88% 0in /  0.0mm 0.00 W/m2 FEW
04:59 26.4 °F /  -3.1 °C 23.4 °F /  -4.8 °C 30.1in /  1017.6hPa South 4.8mph /  7.7km/h 5.8mph /  9.3km/h 88% 0in /  0.0mm 0.00 W/m2 FEW
05:04 26.4 °F /  -3.1 °C 23.4 °F /  -4.8 °C 30.1in /  1017.5hPa South 6mph /  9.7km/h 6.9mph /  11.1km/h 88% 0in /  0.0mm 0.00 W/m2 FEW
05:09 26.4 °F /  -3.1 °C 23.4 °F /  -4.8 °C 30.1in /  1017.5hPa South 6.2mph /  10.0km/h 7mph /  11.3km/h 88% 0in /  0.0mm 0.00 W/m2 FEW
05:14 26.2 °F /  -3.2 °C 23.2 °F /  -4.9 °C 30in /  1017.4hPa South 6mph /  9.7km/h 7mph /  11.3km/h 88% 0in /  0.0mm 0.00 W/m2 FEW
05:19 26.2 °F /  -3.2 °C 23.2 °F /  -4.9 °C 30in /  1017.3hPa South 6.3mph /  10.1km/h 8.1mph /  13.0km/h 88% 0in /  0.0mm 0.00 W/m2 FEW
05:24 26.1 °F /  -3.3 °C 23.4 °F /  -4.8 °C 30.1in /  1017.5hPa South 6.1mph /  9.8km/h 7mph /  11.3km/h 89% 0in /  0.0mm 0.00 W/m2 FEW
05:29 26.1 °F /  -3.3 °C 23.4 °F /  -4.8 °C 30in /  1017.4hPa South 6.1mph /  9.8km/h 6.9mph /  11.1km/h 89% 0in /  0.0mm 0.00 W/m2 FEW
05:34 26.1 °F /  -3.3 °C 23.2 °F /  -4.9 °C 30in /  1017.4hPa SSE 6.2mph /  10.0km/h 6.9mph /  11.1km/h 89% 0in /  0.0mm 0.00 W/m2 FEW
05:39 25.9 °F /  -3.4 °C 23 °F /  -5.0 °C 30.1in /  1017.5hPa South 5mph /  8.0km/h 5.8mph /  9.3km/h 89% 0in /  0.0mm 0.00 W/m2 FEW
05:44 25.5 °F /  -3.6 °C 22.8 °F /  -5.1 °C 30.1in /  1017.5hPa South 3.8mph /  6.1km/h 4mph /  6.4km/h 89% 0in /  0.0mm 0.00 W/m2 FEW
05:49 25.5 °F /  -3.6 °C 22.8 °F /  -5.1 °C 30.1in /  1017.5hPa South 3.4mph /  5.5km/h 4.6mph /  7.4km/h 89% 0in /  0.0mm 0.00 W/m2 FEW
05:54 25.5 °F /  -3.6 °C 22.6 °F /  -5.2 °C 30.1in /  1017.6hPa South 3.1mph /  5.0km/h 3.5mph /  5.6km/h 89% 0in /  0.0mm 0.00 W/m2 FEW
05:59 25.5 °F /  -3.6 °C 22.6 °F /  -5.2 °C 30.1in /  1017.5hPa SSW 3.1mph /  5.0km/h 3.5mph /  5.6km/h 89% 0in /  0.0mm 0.00 W/m2 FEW
06:04 25.3 °F /  -3.7 °C 22.6 °F /  -5.2 °C 30in /  1017.3hPa South 4mph /  6.4km/h 4.6mph /  7.4km/h 89% 0in /  0.0mm 0.00 W/m2 FEW
06:09 25.3 °F /  -3.7 °C 22.6 °F /  -5.2 °C 30in /  1017.2hPa South 4.4mph /  7.1km/h 5mph /  8.0km/h 89% 0in /  0.0mm 0.00 W/m2 FEW
06:14 25.3 °F /  -3.7 °C 22.5 °F /  -5.3 °C 30in /  1017.0hPa South 6.8mph /  10.9km/h 7mph /  11.3km/h 89% 0in /  0.0mm 0.00 W/m2 FEW
06:19 25 °F /  -3.9 °C 22.3 °F /  -5.4 °C 30in /  1016.9hPa South 8.1mph /  13.0km/h 10.4mph /  16.7km/h 89% 0in /  0.0mm 0.00 W/m2 FEW
06:24 25 °F /  -3.9 °C 22.5 °F /  -5.3 °C 30in /  1016.8hPa SSW 8.4mph /  13.5km/h 10.4mph /  16.7km/h 90% 0in /  0.0mm 0.00 W/m2 FEW
06:29 25 °F /  -3.9 °C 22.5 °F /  -5.3 °C 30in /  1016.9hPa South 7.2mph /  11.6km/h 9.2mph /  14.8km/h 90% 0in /  0.0mm 0.00 W/m2 FEW
06:34 25 °F /  -3.9 °C 22.5 °F /  -5.3 °C 30in /  1016.8hPa South 7.2mph /  11.6km/h 8.1mph /  13.0km/h 90% 0in /  0.0mm 0.00 W/m2 FEW
06:39 25 °F /  -3.9 °C 22.5 °F /  -5.3 °C 30in /  1016.8hPa South 6.6mph /  10.6km/h 8.1mph /  13.0km/h 90% 0in /  0.0mm 0.00 W/m2 FEW
06:44 24.8 °F /  -4.0 °C 22.3 °F /  -5.4 °C 30in /  1016.8hPa South 6.7mph /  10.8km/h 6.9mph /  11.1km/h 90% 0in /  0.0mm 0.00 W/m2 FEW
06:49 24.6 °F /  -4.1 °C 22.3 °F /  -5.4 °C 30in /  1016.8hPa South 5.7mph /  9.2km/h 8.1mph /  13.0km/h 90% 0in /  0.0mm 0.00 W/m2 FEW
06:54 24.6 °F /  -4.1 °C 22.3 °F /  -5.4 °C 30in /  1016.9hPa South 6.6mph /  10.6km/h 7mph /  11.3km/h 90% 0in /  0.0mm 0.00 W/m2 FEW
06:59 24.6 °F /  -4.1 °C 22.1 °F /  -5.5 °C 30in /  1016.9hPa SSW 5.9mph /  9.5km/h 6.9mph /  11.1km/h 90% 0in /  0.0mm 0.00 W/m2 FEW
07:04 24.4 °F /  -4.2 °C 21.9 °F /  -5.6 °C 30in /  1017.0hPa SW 4.5mph /  7.2km/h 5.8mph /  9.3km/h 90% 0in /  0.0mm 0.00 W/m2 FEW
07:09 24.4 °F /  -4.2 °C 21.9 °F /  -5.6 °C 30in /  1017.1hPa SSW 3.2mph /  5.1km/h 4.6mph /  7.4km/h 90% 0in /  0.0mm 0.00 W/m2 FEW
07:14 24.4 °F /  -4.2 °C 21.9 °F /  -5.6 °C 30in /  1017.0hPa SSW 3.8mph /  6.1km/h 4.6mph /  7.4km/h 90% 0in /  0.0mm 5.00 W/m2 FEW
07:19 24.4 °F /  -4.2 °C 21.9 °F /  -5.6 °C 30in /  1017.0hPa SW 4.3mph /  6.9km/h 5.8mph /  9.3km/h 90% 0in /  0.0mm 7.00 W/m2 FEW
07:24 24.6 °F /  -4.1 °C 22.1 °F /  -5.5 °C 30in /  1017.0hPa SSW 4.2mph /  6.8km/h 5mph /  8.0km/h 90% 0in /  0.0mm 11.00 W/m2 FEW
07:29 24.6 °F /  -4.1 °C 22.5 °F /  -5.3 °C 30in /  1016.9hPa SW 4mph /  6.4km/h 5.8mph /  9.3km/h 91% 0in /  0.0mm 14.00 W/m2 FEW
07:34 25 °F /  -3.9 °C 22.6 °F /  -5.2 °C 30in /  1016.8hPa SSW 5.2mph /  8.4km/h 6mph /  9.7km/h 91% 0in /  0.0mm 16.00 W/m2 FEW
07:39 25.3 °F /  -3.7 °C 23 °F /  -5.0 °C 30in /  1016.6hPa South 6.3mph /  10.1km/h 6.9mph /  11.1km/h 91% 0in /  0.0mm 21.00 W/m2 FEW
07:44 25.7 °F /  -3.5 °C 23.4 °F /  -4.8 °C 30in /  1016.6hPa South 5.7mph /  9.2km/h 7mph /  11.3km/h 91% 0in /  0.0mm 35.00 W/m2 FEW
07:49 26.1 °F /  -3.3 °C 23.7 °F /  -4.6 °C 30in /  1016.7hPa SSW 4.7mph /  7.6km/h 6mph /  9.7km/h 91% 0in /  0.0mm 49.00 W/m2 FEW
07:54 26.2 °F /  -3.2 °C 24.1 °F /  -4.4 °C 30in /  1016.6hPa South 5.6mph /  9.0km/h 6mph /  9.7km/h 91% 0in /  0.0mm 60.00 W/m2 FEW
07:59 26.4 °F /  -3.1 °C 24.1 °F /  -4.4 °C 30in /  1016.5hPa SSW 7.3mph /  11.7km/h 9.2mph /  14.8km/h 90% 0in /  0.0mm 72.00 W/m2 FEW
08:04 26.8 °F /  -2.9 °C 24.3 °F /  -4.3 °C 30in /  1016.4hPa SSW 8.3mph /  13.4km/h 9.2mph /  14.8km/h 90% 0in /  0.0mm 86.00 W/m2 FEW
08:09 27.1 °F /  -2.7 °C 24.6 °F /  -4.1 °C 30in /  1016.4hPa South 7.9mph /  12.7km/h 10.4mph /  16.7km/h 90% 0in /  0.0mm 100.00 W/m2 FEW
08:14 27.3 °F /  -2.6 °C 25 °F /  -3.9 °C 30in /  1016.5hPa SSW 9.4mph /  15.1km/h 11.5mph /  18.5km/h 90% 0in /  0.0mm 111.00 W/m2 FEW
08:19 27.7 °F /  -2.4 °C 25.2 °F /  -3.8 °C 30in /  1016.4hPa South 8.3mph /  13.4km/h 11.5mph /  18.5km/h 90% 0in /  0.0mm 125.00 W/m2 FEW
08:24 28 °F /  -2.2 °C 25.2 °F /  -3.8 °C 30in /  1016.5hPa SW 8.7mph /  14.0km/h 11.5mph /  18.5km/h 89% 0in /  0.0mm 134.00 W/m2 FEW
08:29 28.2 °F /  -2.1 °C 25.5 °F /  -3.6 °C 30in /  1016.6hPa SSW 6.9mph /  11.1km/h 9.2mph /  14.8km/h 89% 0in /  0.0mm 153.00 W/m2 FEW
08:34 28.8 °F /  -1.8 °C 26.1 °F /  -3.3 °C 30in /  1016.4hPa SSW 7.6mph /  12.2km/h 9.2mph /  14.8km/h 89% 0in /  0.0mm 169.00 W/m2 FEW
08:39 29.3 °F /  -1.5 °C 26.4 °F /  -3.1 °C 30in /  1016.4hPa SSW 7.4mph /  11.9km/h 9.2mph /  14.8km/h 89% 0in /  0.0mm 183.00 W/m2 FEW
08:44 29.8 °F /  -1.2 °C 27 °F /  -2.8 °C 30in /  1016.4hPa SSW 8.2mph /  13.2km/h 10mph /  16.1km/h 89% 0in /  0.0mm 199.00 W/m2 FEW
08:49 30.4 °F /  -0.9 °C 27.3 °F /  -2.6 °C 30in /  1016.3hPa SW 10.2mph /  16.4km/h 11.5mph /  18.5km/h 88% 0in /  0.0mm 207.00 W/m2 FEW
08:54 30.9 °F /  -0.6 °C 27.9 °F /  -2.3 °C 30in /  1016.3hPa SW 8.5mph /  13.7km/h 11.5mph /  18.5km/h 88% 0in /  0.0mm 213.00 W/m2 FEW
08:59 31.6 °F /  -0.2 °C 28.2 °F /  -2.1 °C 30in /  1016.4hPa SW 8.6mph /  13.8km/h 11.5mph /  18.5km/h 87% 0in /  0.0mm 221.00 W/m2 FEW
09:04 32.4 °F /  0.2 °C 28.9 °F /  -1.7 °C 30in /  1016.4hPa SSW 9.7mph /  15.6km/h 11.5mph /  18.5km/h 87% 0in /  0.0mm 234.00 W/m2 FEW
09:09 32.7 °F /  0.4 °C 29.1 °F /  -1.6 °C 30in /  1016.4hPa SW 7.4mph /  11.9km/h 10.4mph /  16.7km/h 86% 0in /  0.0mm 248.00 W/m2 FEW
09:14 33.4 °F /  0.8 °C 29.5 °F /  -1.4 °C 30in /  1016.3hPa SSW 9.1mph /  14.6km/h 11.5mph /  18.5km/h 85% 0in /  0.0mm 260.00 W/m2 FEW
09:19 33.8 °F /  1.0 °C 29.5 °F /  -1.4 °C 30in /  1016.3hPa SW 7.5mph /  12.1km/h 10.4mph /  16.7km/h 84% 0in /  0.0mm 272.00 W/m2 FEW
09:24 34.2 °F /  1.2 °C 29.8 °F /  -1.2 °C 30in /  1016.4hPa WSW 9.7mph /  15.6km/h 11.5mph /  18.5km/h 84% 0in /  0.0mm 281.00 W/m2 FEW
09:29 34.3 °F /  1.3 °C 29.7 °F /  -1.3 °C 30in /  1016.4hPa WSW 8.7mph /  14.0km/h 10.4mph /  16.7km/h 83% 0in /  0.0mm 292.00 W/m2 FEW
09:34 34.7 °F /  1.5 °C 30 °F /  -1.1 °C 30in /  1016.6hPa WSW 8.4mph /  13.5km/h 12.7mph /  20.4km/h 83% 0in /  0.0mm 304.00 W/m2 FEW
09:39 34.9 °F /  1.6 °C 29.8 °F /  -1.2 °C 30in /  1016.5hPa SW 7.1mph /  11.4km/h 9.2mph /  14.8km/h 82% 0in /  0.0mm 313.00 W/m2 FEW
09:44 35.1 °F /  1.7 °C 30 °F /  -1.1 °C 30in /  1016.4hPa West 7.5mph /  12.1km/h 10.4mph /  16.7km/h 82% 0in /  0.0mm 325.00 W/m2 FEW
09:49 35.4 °F /  1.9 °C 30.6 °F /  -0.8 °C 30in /  1016.3hPa WSW 6.9mph /  11.1km/h 10.4mph /  16.7km/h 82% 0in /  0.0mm 334.00 W/m2 FEW
09:54 35.8 °F /  2.1 °C 30.6 °F /  -0.8 °C 30in /  1016.3hPa WSW 7.4mph /  11.9km/h 10.4mph /  16.7km/h 81% 0in /  0.0mm 345.00 W/m2 FEW
09:59 36.1 °F /  2.3 °C 30.7 °F /  -0.7 °C 30in /  1016.3hPa WSW 8.3mph /  13.4km/h 11mph /  17.7km/h 81% 0in /  0.0mm 357.00 W/m2 FEW
10:04 36.7 °F /  2.6 °C 31.5 °F /  -0.3 °C 30in /  1016.3hPa West 7mph /  11.3km/h 10.4mph /  16.7km/h 81% 0in /  0.0mm 367.00 W/m2 FEW
10:09 37 °F /  2.8 °C 31.5 °F /  -0.3 °C 30in /  1016.3hPa West 7.5mph /  12.1km/h 10.4mph /  16.7km/h 80% 0in /  0.0mm 376.00 W/m2 FEW
10:14 37.4 °F /  3.0 °C 31.5 °F /  -0.3 °C 30in /  1016.2hPa WSW 8.5mph /  13.7km/h 9.2mph /  14.8km/h 79% 0in /  0.0mm 383.00 W/m2 FEW
10:19 37.8 °F /  3.2 °C 31.8 °F /  -0.1 °C 30in /  1016.2hPa WSW 6.6mph /  10.6km/h 7mph /  11.3km/h 79% 0in /  0.0mm 394.00 W/m2 FEW
10:24 38.1 °F /  3.4 °C 31.8 °F /  -0.1 °C 30in /  1016.1hPa WSW 7.8mph /  12.6km/h 10.4mph /  16.7km/h 78% 0in /  0.0mm 401.00 W/m2 FEW
10:29 38.7 °F /  3.7 °C 32.4 °F /  0.2 °C 30in /  1016.2hPa WSW 5.5mph /  8.8km/h 8.1mph /  13.0km/h 78% 0in /  0.0mm 410.00 W/m2 FEW
10:34 39 °F /  3.9 °C 32.5 °F /  0.3 °C 30in /  1016.0hPa WSW 8mph /  12.9km/h 9.2mph /  14.8km/h 77% 0in /  0.0mm 417.00 W/m2 FEW
10:39 39.6 °F /  4.2 °C 32.9 °F /  0.5 °C 30in /  1015.9hPa WSW 7.3mph /  11.7km/h 8.1mph /  13.0km/h 77% 0in /  0.0mm 424.00 W/m2 FEW
10:44 40.1 °F /  4.5 °C 32.7 °F /  0.4 °C 30in /  1016.0hPa WSW 7.8mph /  12.6km/h 10.4mph /  16.7km/h 75% 0in /  0.0mm 432.00 W/m2 FEW
10:49 40.5 °F /  4.7 °C 33.3 °F /  0.7 °C 30in /  1015.9hPa WSW 8.7mph /  14.0km/h 11.5mph /  18.5km/h 75% 0in /  0.0mm 438.00 W/m2 FEW
10:54 41 °F /  5.0 °C 33.6 °F /  0.9 °C 30in /  1015.8hPa WSW 7.4mph /  11.9km/h 9.2mph /  14.8km/h 75% 0in /  0.0mm 445.00 W/m2 FEW
10:59 41.5 °F /  5.3 °C 33.8 °F /  1.0 °C 30in /  1015.8hPa SSW 7mph /  11.3km/h 9.2mph /  14.8km/h 74% 0in /  0.0mm 452.00 W/m2 FEW
11:04 42.1 °F /  5.6 °C 34.2 °F /  1.2 °C 30in /  1015.7hPa SSW 7.5mph /  12.1km/h 9.2mph /  14.8km/h 73% 0in /  0.0mm 459.00 W/m2 FEW
11:09 42.6 °F /  5.9 °C 34.2 °F /  1.2 °C 30in /  1015.6hPa WSW 5.9mph /  9.5km/h 9.2mph /  14.8km/h 72% 0in /  0.0mm 461.00 W/m2 FEW
11:14 43 °F /  6.1 °C 34.2 °F /  1.2 °C 30in /  1015.5hPa WSW 7.9mph /  12.7km/h 10.4mph /  16.7km/h 71% 0in /  0.0mm 464.00 W/m2 FEW
11:19 43.5 °F /  6.4 °C 34.7 °F /  1.5 °C 30in /  1015.5hPa WSW 8mph /  12.9km/h 10.4mph /  16.7km/h 71% 0in /  0.0mm 469.00 W/m2 FEW
11:24 44.1 °F /  6.7 °C 34.9 °F /  1.6 °C 30in /  1015.6hPa West 6.8mph /  10.9km/h 9.2mph /  14.8km/h 70% 0in /  0.0mm 475.00 W/m2 FEW
11:29 44.2 °F /  6.8 °C 34.9 °F /  1.6 °C 30in /  1015.8hPa West 5.7mph /  9.2km/h 8.1mph /  13.0km/h 69% 0in /  0.0mm 478.00 W/m2 FEW
11:34 44.6 °F /  7.0 °C 34.7 °F /  1.5 °C 30in /  1015.6hPa WNW 5.5mph /  8.8km/h 9.2mph /  14.8km/h 68% 0in /  0.0mm 480.00 W/m2 FEW
11:39 45.1 °F /  7.3 °C 35.2 °F /  1.8 °C 30in /  1015.6hPa WNW 5.5mph /  8.8km/h 10mph /  16.1km/h 68% 0in /  0.0mm 483.00 W/m2 FEW
Friend Weather